createdAt,value
2017-12-06T00:00:27.670Z,1018.58
2017-12-06T00:01:27.737Z,1018.64
2017-12-06T00:02:27.620Z,1018.67
2017-12-06T00:03:27.647Z,1018.65
2017-12-06T00:04:27.568Z,1018.65
2017-12-06T00:05:27.659Z,1018.63
2017-12-06T00:06:27.509Z,1018.68
2017-12-06T00:07:27.567Z,1018.60
2017-12-06T00:08:27.462Z,1018.61
2017-12-06T00:09:27.468Z,1018.64
2017-12-06T00:10:27.410Z,1018.64
2017-12-06T00:11:27.590Z,1018.60
2017-12-06T00:12:27.358Z,1018.58
2017-12-06T00:13:27.505Z,1018.61
2017-12-06T00:14:27.508Z,1018.61
2017-12-06T00:15:27.278Z,1018.63
2017-12-06T00:16:27.423Z,1018.59
2017-12-06T00:17:27.223Z,1018.58
2017-12-06T00:18:27.327Z,1018.67
2017-12-06T00:19:27.168Z,1018.62
2017-12-06T00:20:27.337Z,1018.67
2017-12-06T00:21:27.115Z,1018.67
2017-12-06T00:22:27.251Z,1018.59
2017-12-06T00:23:27.059Z,1018.60
2017-12-06T00:24:27.159Z,1018.59
2017-12-06T00:25:27.001Z,1018.58
2017-12-06T00:26:27.172Z,1018.49
2017-12-06T00:27:27.076Z,1018.51
2017-12-06T00:28:26.933Z,1018.52
2017-12-06T00:29:27.086Z,1018.45
2017-12-06T00:30:26.868Z,1018.44
2017-12-06T00:31:26.998Z,1018.49
2017-12-06T00:32:26.821Z,1018.43
2017-12-06T00:33:26.789Z,1018.44
2017-12-06T00:34:26.913Z,1018.39
2017-12-06T00:35:26.742Z,1018.47
2017-12-06T00:36:26.824Z,1018.42
2017-12-06T00:37:26.684Z,1018.38
2017-12-06T00:38:26.838Z,1018.42
2017-12-06T00:39:26.743Z,1018.41
2017-12-06T00:40:26.604Z,1018.40
2017-12-06T00:41:26.756Z,1018.46
2017-12-06T00:42:26.553Z,1018.47
2017-12-06T00:43:26.660Z,1018.41
2017-12-06T00:44:26.498Z,1018.39
2017-12-06T00:45:26.467Z,1018.42
2017-12-06T00:46:26.579Z,1018.49
2017-12-06T00:47:26.414Z,1018.45
2017-12-06T00:48:26.592Z,1018.48
2017-12-06T00:49:26.361Z,1018.55
2017-12-06T00:50:26.504Z,1018.46
2017-12-06T00:51:26.316Z,1018.43
2017-12-06T00:52:26.409Z,1018.48
2017-12-06T00:53:26.256Z,1018.47
2017-12-06T00:54:26.425Z,1018.42
2017-12-06T00:55:26.202Z,1018.36
2017-12-06T00:56:26.333Z,1018.42
2017-12-06T00:57:26.149Z,1018.38
2017-12-06T00:58:26.242Z,1018.39
2017-12-06T00:59:26.094Z,1018.45
2017-12-06T01:00:26.255Z,1018.36
2017-12-06T01:01:26.044Z,1018.31
2017-12-06T01:02:26.164Z,1018.39
2017-12-06T01:03:25.994Z,1018.34
2017-12-06T01:04:26.074Z,1018.32
2017-12-06T01:05:25.939Z,1018.34
2017-12-06T01:06:26.127Z,1018.45
2017-12-06T01:07:25.884Z,1018.33
2017-12-06T01:08:25.995Z,1018.35
2017-12-06T01:09:25.833Z,1018.30
2017-12-06T01:10:25.903Z,1018.34
2017-12-06T01:11:25.782Z,1018.33
2017-12-06T01:12:25.914Z,1018.35
2017-12-06T01:13:25.734Z,1018.36
2017-12-06T01:14:25.696Z,1018.33
2017-12-06T01:15:25.671Z,1018.34
2017-12-06T01:16:25.736Z,1018.40
2017-12-06T01:17:25.620Z,1018.34
2017-12-06T01:18:25.747Z,1018.42
2017-12-06T01:19:25.563Z,1018.37
2017-12-06T01:20:25.659Z,1018.29
2017-12-06T01:21:25.505Z,1018.39
2017-12-06T01:22:25.568Z,1018.33
2017-12-06T01:23:25.455Z,1018.35
2017-12-06T01:24:25.584Z,1018.37
2017-12-06T01:25:25.409Z,1018.36
2017-12-06T01:26:25.492Z,1018.36
2017-12-06T01:27:25.350Z,1018.39
2017-12-06T01:28:25.405Z,1018.37
2017-12-06T01:29:25.409Z,1018.38
2017-12-06T01:30:25.269Z,1018.40
2017-12-06T01:31:25.422Z,1018.45
2017-12-06T01:32:25.213Z,1018.40
2017-12-06T01:33:25.332Z,1018.42
2017-12-06T01:34:25.166Z,1018.45
2017-12-06T01:35:25.240Z,1018.46
2017-12-06T01:36:25.110Z,1018.39
2017-12-06T01:37:25.254Z,1018.38
2017-12-06T01:38:25.156Z,1018.40
2017-12-06T01:39:25.028Z,1018.42
2017-12-06T01:40:25.173Z,1018.43
2017-12-06T01:41:24.973Z,1018.41
2017-12-06T01:42:25.081Z,1018.39
2017-12-06T01:43:24.921Z,1018.45
2017-12-06T01:44:24.896Z,1018.42
2017-12-06T01:45:24.990Z,1018.37
2017-12-06T01:46:24.841Z,1018.41
2017-12-06T01:47:24.905Z,1018.46
2017-12-06T01:48:24.789Z,1018.37
2017-12-06T01:49:24.913Z,1018.39
2017-12-06T01:50:24.733Z,1018.35
2017-12-06T01:51:24.856Z,1018.40
2017-12-06T01:52:24.682Z,1018.38
2017-12-06T01:53:24.653Z,1018.37
2017-12-06T01:54:24.631Z,1018.36
2017-12-06T01:55:24.747Z,1018.31
2017-12-06T01:56:24.580Z,1018.27
2017-12-06T01:57:24.657Z,1018.37
2017-12-06T01:58:24.520Z,1018.48
2017-12-06T01:59:24.495Z,1018.29
2017-12-06T02:00:24.571Z,1018.31
2017-12-06T02:01:24.441Z,1018.29
2017-12-06T02:02:24.490Z,1018.32
2017-12-06T02:03:24.385Z,1018.42
2017-12-06T02:04:24.496Z,1018.31
2017-12-06T02:05:24.335Z,1018.30
2017-12-06T02:06:24.308Z,1018.32
2017-12-06T02:07:24.283Z,1018.34
2017-12-06T02:08:24.317Z,1018.32
2017-12-06T02:09:24.234Z,1018.44
2017-12-06T02:10:24.326Z,1018.32
2017-12-06T02:11:24.177Z,1018.32
2017-12-06T02:12:24.238Z,1018.20
2017-12-06T02:13:24.122Z,1018.35
2017-12-06T02:14:24.148Z,1018.33
2017-12-06T02:15:24.069Z,1018.36
2017-12-06T02:16:24.159Z,1018.31
2017-12-06T02:17:24.012Z,1018.35
2017-12-06T02:18:24.070Z,1018.35
2017-12-06T02:19:23.954Z,1018.31
2017-12-06T02:20:24.084Z,1018.30
2017-12-06T02:21:23.904Z,1018.33
2017-12-06T02:22:25.017Z,1018.34
2017-12-06T02:23:23.996Z,1018.34
2017-12-06T02:24:23.824Z,1018.37
2017-12-06T02:25:23.907Z,1018.31
2017-12-06T02:26:23.773Z,1018.28
2017-12-06T02:27:23.818Z,1018.33
2017-12-06T02:28:23.718Z,1018.26
2017-12-06T02:29:23.689Z,1018.22
2017-12-06T02:30:23.660Z,1018.27
2017-12-06T02:31:23.741Z,1018.22
2017-12-06T02:32:23.609Z,1018.27
2017-12-06T02:33:23.655Z,1018.22
2017-12-06T02:34:23.555Z,1018.14
2017-12-06T02:35:23.534Z,1018.17
2017-12-06T02:36:23.676Z,1018.16
2017-12-06T02:37:23.479Z,1018.16
2017-12-06T02:38:23.579Z,1018.11
2017-12-06T02:39:23.423Z,1018.11
2017-12-06T02:40:23.491Z,1018.14
2017-12-06T02:41:23.371Z,1018.16
2017-12-06T02:42:23.398Z,1018.10
2017-12-06T02:43:23.315Z,1018.10
2017-12-06T02:44:23.410Z,1018.08
2017-12-06T02:45:23.264Z,1018.05
2017-12-06T02:46:23.236Z,1018.11
2017-12-06T02:47:23.210Z,1018.11
2017-12-06T02:48:23.231Z,1018.10
2017-12-06T02:49:23.157Z,1018.05
2017-12-06T02:50:23.242Z,1018.13
2017-12-06T02:51:23.106Z,1018.06
2017-12-06T02:52:23.086Z,1018.01
2017-12-06T02:53:23.054Z,1018.06
2017-12-06T02:54:23.066Z,1018.03
2017-12-06T02:55:22.993Z,1017.99
2017-12-06T02:56:23.076Z,1018.06
2017-12-06T02:57:22.940Z,1017.97
2017-12-06T02:58:22.910Z,1017.99
2017-12-06T02:59:22.890Z,1018.00
2017-12-06T03:00:22.896Z,1017.96
2017-12-06T03:01:22.836Z,1017.99
2017-12-06T03:02:22.903Z,1017.91
2017-12-06T03:03:22.777Z,1018.01
2017-12-06T03:04:22.753Z,1017.97
2017-12-06T03:05:22.822Z,1017.97
2017-12-06T03:06:22.705Z,1017.95
2017-12-06T03:07:22.728Z,1017.91
2017-12-06T03:08:22.644Z,1017.92
2017-12-06T03:09:22.846Z,1017.98
2017-12-06T03:10:22.599Z,1017.94
2017-12-06T03:11:22.759Z,1017.91
2017-12-06T03:12:22.543Z,1017.95
2017-12-06T03:13:22.664Z,1017.97
2017-12-06T03:14:22.673Z,1017.98
2017-12-06T03:15:22.461Z,1017.92
2017-12-06T03:16:22.581Z,1017.98
2017-12-06T03:17:22.409Z,1017.97
2017-12-06T03:18:22.593Z,1017.95
2017-12-06T03:19:22.353Z,1017.97
2017-12-06T03:20:22.330Z,1017.95
2017-12-06T03:21:22.507Z,1017.95
2017-12-06T03:22:22.274Z,1018.00
2017-12-06T03:23:22.421Z,1017.99
2017-12-06T03:24:22.220Z,1017.92
2017-12-06T03:25:22.191Z,1017.96
2017-12-06T03:26:22.165Z,1017.95
2017-12-06T03:27:22.340Z,1017.86
2017-12-06T03:28:22.113Z,1017.92
2017-12-06T03:29:22.255Z,1017.93
2017-12-06T03:30:22.059Z,1017.89
2017-12-06T03:31:22.039Z,1017.88
2017-12-06T03:32:22.007Z,1017.90
2017-12-06T03:33:22.175Z,1017.86
2017-12-06T03:34:21.953Z,1017.87
2017-12-06T03:35:22.089Z,1017.87
2017-12-06T03:36:21.895Z,1017.79
2017-12-06T03:37:21.997Z,1017.77
2017-12-06T03:38:21.846Z,1017.80
2017-12-06T03:39:21.818Z,1017.82
2017-12-06T03:40:21.912Z,1017.73
2017-12-06T03:41:21.766Z,1017.75
2017-12-06T03:42:21.921Z,1017.73
2017-12-06T03:43:21.712Z,1017.76
2017-12-06T03:44:21.688Z,1017.77
2017-12-06T03:45:21.656Z,1017.72
2017-12-06T03:46:21.739Z,1017.72
2017-12-06T03:47:21.607Z,1017.68
2017-12-06T03:48:21.753Z,1017.71
2017-12-06T03:49:21.556Z,1017.70
2017-12-06T03:50:21.536Z,1017.64
2017-12-06T03:51:21.495Z,1017.57
2017-12-06T03:52:21.572Z,1017.59
2017-12-06T03:53:21.445Z,1017.62
2017-12-06T03:54:21.589Z,1017.56
2017-12-06T03:55:21.389Z,1017.54
2017-12-06T03:56:21.362Z,1017.61
2017-12-06T03:57:21.501Z,1017.59
2017-12-06T03:58:21.308Z,1017.61
2017-12-06T03:59:21.412Z,1017.55
2017-12-06T04:00:21.263Z,1017.59
2017-12-06T04:01:21.323Z,1017.59
2017-12-06T04:02:21.202Z,1017.66
2017-12-06T04:03:21.334Z,1017.66
2017-12-06T04:04:21.146Z,1017.64
2017-12-06T04:05:21.244Z,1017.58
2017-12-06T04:06:21.101Z,1017.58
2017-12-06T04:07:21.254Z,1017.53
2017-12-06T04:08:21.043Z,1017.53
2017-12-06T04:09:21.161Z,1017.55
2017-12-06T04:10:20.984Z,1017.50
2017-12-06T04:11:21.074Z,1017.48
2017-12-06T04:12:20.942Z,1017.52
2017-12-06T04:13:21.085Z,1017.50
2017-12-06T04:14:20.879Z,1017.49
2017-12-06T04:15:20.996Z,1017.52
2017-12-06T04:16:20.828Z,1017.49
2017-12-06T04:17:20.906Z,1017.49
2017-12-06T04:18:20.776Z,1017.51
2017-12-06T04:19:20.746Z,1017.44
2017-12-06T04:20:20.719Z,1017.44
2017-12-06T04:21:20.828Z,1017.50
2017-12-06T04:22:20.675Z,1017.51
2017-12-06T04:23:20.740Z,1017.49
2017-12-06T04:24:20.625Z,1017.42
2017-12-06T04:25:20.751Z,1017.46
2017-12-06T04:26:20.563Z,1017.46
2017-12-06T04:27:20.666Z,1017.48
2017-12-06T04:28:20.509Z,1017.47
2017-12-06T04:29:20.571Z,1017.45
2017-12-06T04:30:20.584Z,1017.46
2017-12-06T04:31:20.429Z,1017.49
2017-12-06T04:32:20.489Z,1017.45
2017-12-06T04:33:20.373Z,1017.43
2017-12-06T04:34:20.500Z,1017.46
2017-12-06T04:35:20.325Z,1017.45
2017-12-06T04:36:20.415Z,1017.46
2017-12-06T04:37:20.271Z,1017.44
2017-12-06T04:38:20.340Z,1017.46
2017-12-06T04:39:20.229Z,1017.44
2017-12-06T04:40:20.333Z,1017.45
2017-12-06T04:41:20.170Z,1017.44
2017-12-06T04:42:20.133Z,1017.45
2017-12-06T04:43:20.111Z,1017.43
2017-12-06T04:44:20.152Z,1017.44
2017-12-06T04:45:20.061Z,1017.47
2017-12-06T04:46:20.162Z,1017.50
2017-12-06T04:47:20.020Z,1017.40
2017-12-06T04:48:19.976Z,1017.44
2017-12-06T04:49:19.947Z,1017.46
2017-12-06T04:50:20.094Z,1017.43
2017-12-06T04:51:19.913Z,1017.41
2017-12-06T04:52:19.994Z,1017.42
2017-12-06T04:53:19.838Z,1017.38
2017-12-06T04:54:19.815Z,1017.28
2017-12-06T04:55:19.862Z,1017.20
2017-12-06T04:56:19.899Z,1017.17
2017-12-06T04:57:19.824Z,1017.20
2017-12-06T04:58:19.707Z,1017.17
2017-12-06T04:59:19.840Z,1017.20
2017-12-06T05:00:19.657Z,1017.19
2017-12-06T05:01:19.747Z,1017.28
2017-12-06T05:02:19.599Z,1017.22
2017-12-06T05:03:19.655Z,1017.18
2017-12-06T05:04:19.542Z,1017.19
2017-12-06T05:05:19.669Z,1017.19
2017-12-06T05:06:19.493Z,1017.15
2017-12-06T05:07:19.581Z,1017.14
2017-12-06T05:08:19.438Z,1017.13
2017-12-06T05:09:19.488Z,1017.12
2017-12-06T05:10:19.383Z,1017.13
2017-12-06T05:11:19.495Z,1017.13
2017-12-06T05:12:19.341Z,1017.18
2017-12-06T05:13:19.404Z,1017.10
2017-12-06T05:14:19.278Z,1017.10
2017-12-06T05:15:19.318Z,1017.09
2017-12-06T05:16:19.228Z,1017.08
2017-12-06T05:17:19.202Z,1017.10
2017-12-06T05:18:19.174Z,1017.13
2017-12-06T05:19:19.244Z,1017.09
2017-12-06T05:20:19.127Z,1017.08
2017-12-06T05:21:19.156Z,1017.14
2017-12-06T05:22:19.064Z,1017.15
2017-12-06T05:23:19.048Z,1017.13
2017-12-06T05:24:19.020Z,1017.09
2017-12-06T05:25:19.069Z,1017.00
2017-12-06T05:26:18.956Z,1017.07
2017-12-06T05:27:18.980Z,1017.08
2017-12-06T05:28:18.907Z,1017.12
2017-12-06T05:29:18.995Z,1017.03
2017-12-06T05:30:18.853Z,1017.02
2017-12-06T05:31:18.900Z,1017.03
2017-12-06T05:32:18.803Z,1016.99
2017-12-06T05:33:18.812Z,1016.92
2017-12-06T05:34:18.753Z,1017.01
2017-12-06T05:35:18.722Z,1016.98
2017-12-06T05:36:18.830Z,1016.96
2017-12-06T05:37:18.667Z,1016.97
2017-12-06T05:38:18.746Z,1016.99
2017-12-06T05:39:18.610Z,1016.90
2017-12-06T05:40:18.588Z,1016.94
2017-12-06T05:41:18.565Z,1016.90
2017-12-06T05:42:18.664Z,1016.91
2017-12-06T05:43:18.504Z,1016.89
2017-12-06T05:44:18.570Z,1016.91
2017-12-06T05:45:18.461Z,1016.86
2017-12-06T05:46:18.436Z,1016.92
2017-12-06T05:47:18.400Z,1016.89
2017-12-06T05:48:18.551Z,1016.81
2017-12-06T05:49:18.353Z,1016.89
2017-12-06T05:50:18.405Z,1016.87
2017-12-06T05:51:18.295Z,1016.80
2017-12-06T05:52:18.266Z,1016.82
2017-12-06T05:53:18.321Z,1016.87
2017-12-06T05:54:18.220Z,1016.84
2017-12-06T05:55:19.111Z,1016.86
2017-12-06T05:56:18.165Z,1016.85
2017-12-06T05:57:18.142Z,1016.83
2017-12-06T05:58:18.153Z,1016.80
2017-12-06T05:59:18.107Z,1016.80
2017-12-06T06:00:18.065Z,1016.82
2017-12-06T06:01:18.023Z,1016.84
2017-12-06T06:02:18.558Z,1016.82
2017-12-06T06:03:17.976Z,1016.85
2017-12-06T06:04:17.958Z,1016.87
2017-12-06T06:05:17.923Z,1016.86
2017-12-06T06:06:17.895Z,1016.75
2017-12-06T06:07:17.868Z,1016.78
2017-12-06T06:08:17.853Z,1016.82
2017-12-06T06:09:17.808Z,1016.72
2017-12-06T06:10:17.794Z,1016.75
2017-12-06T06:11:17.762Z,1016.76
2017-12-06T06:12:17.740Z,1016.70
2017-12-06T06:13:17.705Z,1016.68
2017-12-06T06:14:17.683Z,1016.67
2017-12-06T06:15:17.664Z,1016.70
2017-12-06T06:16:17.630Z,1016.72
2017-12-06T06:17:17.602Z,1016.68
2017-12-06T06:18:17.578Z,1016.71
2017-12-06T06:19:17.547Z,1016.72
2017-12-06T06:20:17.518Z,1016.72
2017-12-06T06:21:17.506Z,1016.67
2017-12-06T06:22:17.463Z,1016.71
2017-12-06T06:23:17.446Z,1016.62
2017-12-06T06:24:17.411Z,1016.63
2017-12-06T06:25:17.392Z,1016.68
2017-12-06T06:26:17.358Z,1016.57
2017-12-06T06:27:17.341Z,1016.68
2017-12-06T06:28:17.304Z,1016.64
2017-12-06T06:29:17.292Z,1016.59
2017-12-06T06:30:17.249Z,1016.59
2017-12-06T06:31:17.228Z,1016.63
2017-12-06T06:32:17.197Z,1016.58
2017-12-06T06:33:17.175Z,1016.58
2017-12-06T06:34:17.154Z,1016.58
2017-12-06T06:35:17.119Z,1016.57
2017-12-06T06:36:17.100Z,1016.57
2017-12-06T06:37:17.067Z,1016.62
2017-12-06T06:38:17.046Z,1016.63
2017-12-06T06:39:17.014Z,1016.65
2017-12-06T06:40:16.990Z,1016.60
2017-12-06T06:41:16.956Z,1016.59
2017-12-06T06:42:17.934Z,1016.63
2017-12-06T06:43:16.934Z,1016.66
2017-12-06T06:44:16.882Z,1016.66
2017-12-06T06:45:16.853Z,1016.62
2017-12-06T06:46:16.831Z,1016.65
2017-12-06T06:47:16.802Z,1016.59
2017-12-06T06:48:16.774Z,1016.65
2017-12-06T06:49:16.817Z,1016.60
2017-12-06T06:50:16.727Z,1016.59
2017-12-06T06:51:16.706Z,1016.63
2017-12-06T06:52:16.665Z,1016.58
2017-12-06T06:53:16.648Z,1016.56
2017-12-06T06:54:16.622Z,1016.56
2017-12-06T06:55:16.591Z,1016.59
2017-12-06T06:56:16.556Z,1016.61
2017-12-06T06:57:16.537Z,1016.62
2017-12-06T06:58:16.509Z,1016.61
2017-12-06T06:59:16.483Z,1016.63
2017-12-06T07:00:16.449Z,1016.60
2017-12-06T07:01:16.428Z,1016.61
2017-12-06T07:02:16.400Z,1016.59
2017-12-06T07:03:16.378Z,1016.58
2017-12-06T07:04:16.346Z,1016.74
2017-12-06T07:05:16.320Z,1016.71
2017-12-06T07:06:16.307Z,1016.69
2017-12-06T07:07:16.287Z,1016.66
2017-12-06T07:08:16.241Z,1016.74
2017-12-06T07:09:16.215Z,1016.75
2017-12-06T07:10:16.190Z,1016.74
2017-12-06T07:11:16.163Z,1016.71
2017-12-06T07:12:16.136Z,1016.74
2017-12-06T07:13:16.112Z,1016.72
2017-12-06T07:14:16.092Z,1016.71
2017-12-06T07:15:16.054Z,1016.77
2017-12-06T07:16:16.034Z,1016.71
2017-12-06T07:17:16.000Z,1016.67
2017-12-06T07:18:15.983Z,1016.70
2017-12-06T07:19:15.954Z,1016.70
2017-12-06T07:20:15.919Z,1016.67
2017-12-06T07:21:15.901Z,1016.68
2017-12-06T07:22:15.865Z,1016.76
2017-12-06T07:23:15.894Z,1016.81
2017-12-06T07:24:15.812Z,1016.73
2017-12-06T07:25:15.794Z,1016.76
2017-12-06T07:26:15.759Z,1016.80
2017-12-06T07:27:15.740Z,1016.76
2017-12-06T07:28:15.705Z,1016.80
2017-12-06T07:29:15.726Z,1016.81
2017-12-06T07:30:15.662Z,1016.79
2017-12-06T07:31:15.629Z,1016.75
2017-12-06T07:32:15.610Z,1016.75
2017-12-06T07:33:15.575Z,1016.82
2017-12-06T07:34:15.553Z,1016.80
2017-12-06T07:35:15.524Z,1016.79
2017-12-06T07:36:15.488Z,1016.88
2017-12-06T07:37:15.469Z,1016.80
2017-12-06T07:38:15.454Z,1016.90
2017-12-06T07:39:15.424Z,1016.80
2017-12-06T07:40:15.396Z,1016.83
2017-12-06T07:41:15.370Z,1016.83
2017-12-06T07:42:15.337Z,1016.88
2017-12-06T07:43:15.311Z,1016.85
2017-12-06T07:44:15.299Z,1016.85
2017-12-06T07:45:15.252Z,1016.90
2017-12-06T07:46:15.231Z,1016.91
2017-12-06T07:47:15.201Z,1016.81
2017-12-06T07:48:15.172Z,1016.89
2017-12-06T07:49:15.152Z,1016.85
2017-12-06T07:50:15.138Z,1016.79
2017-12-06T07:51:15.104Z,1016.86
2017-12-06T07:52:15.067Z,1016.80
2017-12-06T07:53:15.050Z,1016.84
2017-12-06T07:54:15.023Z,1016.83
2017-12-06T07:55:14.995Z,1016.87
2017-12-06T07:56:14.959Z,1016.85
2017-12-06T07:57:14.945Z,1016.85
2017-12-06T07:58:14.911Z,1016.86
2017-12-06T07:59:14.883Z,1016.84
2017-12-06T08:00:14.861Z,1016.75
2017-12-06T08:01:14.840Z,1016.76
2017-12-06T08:02:14.805Z,1016.95
2017-12-06T08:03:14.785Z,1016.88
2017-12-06T08:04:14.757Z,1016.79
2017-12-06T08:05:14.830Z,1016.74
2017-12-06T08:06:14.695Z,1016.79
2017-12-06T08:07:14.677Z,1016.74
2017-12-06T08:08:14.646Z,1016.81
2017-12-06T08:09:14.618Z,1016.77
2017-12-06T08:10:14.589Z,1016.76
2017-12-06T08:11:14.567Z,1016.79
2017-12-06T08:12:14.539Z,1016.75
2017-12-06T08:13:14.522Z,1016.74
2017-12-06T08:14:14.485Z,1016.80
2017-12-06T08:15:14.461Z,1016.80
2017-12-06T08:16:14.431Z,1016.85
2017-12-06T08:17:14.400Z,1016.83
2017-12-06T08:18:14.378Z,1016.94
2017-12-06T08:19:14.353Z,1016.84
2017-12-06T08:20:14.331Z,1016.89
2017-12-06T08:21:14.303Z,1016.86
2017-12-06T08:22:14.273Z,1016.81
2017-12-06T08:23:14.244Z,1016.83
2017-12-06T08:24:14.222Z,1016.85
2017-12-06T08:25:14.190Z,1016.82
2017-12-06T08:26:14.174Z,1016.82
2017-12-06T08:27:14.137Z,1016.84
2017-12-06T08:28:14.113Z,1016.88
2017-12-06T08:29:14.085Z,1016.81
2017-12-06T08:30:14.111Z,1016.96
2017-12-06T08:31:14.030Z,1016.83
2017-12-06T08:32:14.005Z,1016.85
2017-12-06T08:33:13.980Z,1016.90
2017-12-06T08:34:13.949Z,1016.77
2017-12-06T08:35:13.929Z,1016.84
2017-12-06T08:36:13.903Z,1016.85
2017-12-06T08:37:13.874Z,1016.79
2017-12-06T08:38:13.855Z,1016.96
2017-12-06T08:39:13.818Z,1016.87
2017-12-06T08:40:13.800Z,1016.86
2017-12-06T08:41:13.765Z,1016.86
2017-12-06T08:42:13.745Z,1016.90
2017-12-06T08:43:13.718Z,1016.86
2017-12-06T08:44:13.694Z,1016.86
2017-12-06T08:45:13.657Z,1016.81
2017-12-06T08:46:13.629Z,1016.94
2017-12-06T08:47:13.613Z,1016.89
2017-12-06T08:48:13.588Z,1016.95
2017-12-06T08:49:13.553Z,1017.00
2017-12-06T08:50:13.527Z,1016.89
2017-12-06T08:51:13.504Z,1016.92
2017-12-06T08:52:13.475Z,1016.96
2017-12-06T08:53:13.453Z,1016.92
2017-12-06T08:54:13.415Z,1016.99
2017-12-06T08:55:13.399Z,1016.95
2017-12-06T08:56:13.368Z,1017.02
2017-12-06T08:57:13.340Z,1016.94
2017-12-06T08:58:13.311Z,1016.96
2017-12-06T08:59:13.293Z,1016.97
2017-12-06T09:00:13.262Z,1017.03
2017-12-06T09:01:13.242Z,1016.98
2017-12-06T09:02:13.200Z,1016.96
2017-12-06T09:03:13.186Z,1017.09
2017-12-06T09:04:13.163Z,1017.05
2017-12-06T09:05:13.129Z,1017.05
2017-12-06T09:06:13.098Z,1017.03
2017-12-06T09:07:13.081Z,1017.06
2017-12-06T09:08:13.046Z,1017.07
2017-12-06T09:09:13.015Z,1017.07
2017-12-06T09:10:12.991Z,1017.10
2017-12-06T09:11:12.974Z,1017.01
2017-12-06T09:12:12.948Z,1017.09
2017-12-06T09:13:12.919Z,1017.05
2017-12-06T09:14:12.890Z,1017.10
2017-12-06T09:15:12.858Z,1017.04
2017-12-06T09:16:12.835Z,1017.00
2017-12-06T09:17:12.815Z,1017.08
2017-12-06T09:18:12.782Z,1017.04
2017-12-06T09:19:12.756Z,1017.03
2017-12-06T09:20:12.735Z,1017.09
2017-12-06T09:21:12.700Z,1016.99
2017-12-06T09:22:12.685Z,1017.05
2017-12-06T09:23:12.643Z,1017.04
2017-12-06T09:24:12.630Z,1017.07
2017-12-06T09:25:12.591Z,1017.00
2017-12-06T09:26:12.581Z,1017.02
2017-12-06T09:27:12.543Z,1016.97
2017-12-06T09:28:12.518Z,1017.05
2017-12-06T09:29:12.491Z,1017.05
2017-12-06T09:30:12.485Z,1017.07
2017-12-06T09:31:12.437Z,1017.06
2017-12-06T09:32:12.407Z,1017.09
2017-12-06T09:33:12.383Z,1017.14
2017-12-06T09:34:12.360Z,1017.07
2017-12-06T09:35:12.334Z,1017.12
2017-12-06T09:36:12.318Z,1017.05
2017-12-06T09:37:12.271Z,1017.04
2017-12-06T09:38:12.259Z,1017.03
2017-12-06T09:39:12.221Z,1016.97
2017-12-06T09:40:12.218Z,1016.98
2017-12-06T09:41:12.172Z,1016.99
2017-12-06T09:42:12.159Z,1016.96
2017-12-06T09:43:12.113Z,1016.99
2017-12-06T09:44:12.092Z,1017.00
2017-12-06T09:45:12.064Z,1017.01
2017-12-06T09:46:12.040Z,1017.02
2017-12-06T09:47:12.015Z,1016.94
2017-12-06T09:48:11.992Z,1016.97
2017-12-06T09:49:11.957Z,1017.00
2017-12-06T09:50:11.931Z,1016.99
2017-12-06T09:51:11.909Z,1017.04
2017-12-06T09:52:11.882Z,1016.91
2017-12-06T09:53:11.860Z,1016.96
2017-12-06T09:54:11.827Z,1016.95
2017-12-06T09:55:11.798Z,1016.94
2017-12-06T09:56:11.776Z,1016.92
2017-12-06T09:57:11.752Z,1016.95
2017-12-06T09:58:11.726Z,1016.92
2017-12-06T09:59:11.696Z,1016.92
2017-12-06T10:00:11.676Z,1016.87
2017-12-06T10:01:11.644Z,1016.90
2017-12-06T10:02:11.614Z,1016.99
2017-12-06T10:03:11.596Z,1016.97
2017-12-06T10:04:11.580Z,1016.88
2017-12-06T10:05:11.540Z,1016.86
2017-12-06T10:06:11.513Z,1016.86
2017-12-06T10:07:11.491Z,1016.91
2017-12-06T10:08:11.457Z,1016.92
2017-12-06T10:09:11.439Z,1016.91
2017-12-06T10:10:11.406Z,1016.89
2017-12-06T10:11:11.381Z,1016.91
2017-12-06T10:12:11.353Z,1016.91
2017-12-06T10:13:11.334Z,1016.90
2017-12-06T10:14:11.302Z,1016.92
2017-12-06T10:15:11.275Z,1016.89
2017-12-06T10:16:11.252Z,1016.90
2017-12-06T10:17:11.225Z,1016.85
2017-12-06T10:18:11.199Z,1016.87
2017-12-06T10:19:11.173Z,1016.92
2017-12-06T10:20:11.148Z,1016.84
2017-12-06T10:21:11.111Z,1016.85
2017-12-06T10:22:12.090Z,1016.81
2017-12-06T10:23:11.056Z,1016.87
2017-12-06T10:24:11.049Z,1016.87
2017-12-06T10:25:11.011Z,1016.81
2017-12-06T10:26:10.978Z,1016.74
2017-12-06T10:27:10.964Z,1016.76
2017-12-06T10:28:10.927Z,1016.76
2017-12-06T10:29:10.910Z,1016.70
2017-12-06T10:30:10.870Z,1016.74
2017-12-06T10:31:10.864Z,1016.72
2017-12-06T10:32:10.818Z,1016.73
2017-12-06T10:33:10.803Z,1016.71
2017-12-06T10:34:10.771Z,1016.72
2017-12-06T10:35:10.752Z,1016.67
2017-12-06T10:36:10.716Z,1016.65
2017-12-06T10:37:10.696Z,1016.64
2017-12-06T10:38:10.665Z,1016.65
2017-12-06T10:39:10.640Z,1016.66
2017-12-06T10:40:10.619Z,1016.64
2017-12-06T10:41:10.586Z,1016.68
2017-12-06T10:42:10.554Z,1016.63
2017-12-06T10:43:10.533Z,1016.59
2017-12-06T10:44:10.511Z,1016.58
2017-12-06T10:45:10.489Z,1016.57
2017-12-06T10:46:10.455Z,1016.60
2017-12-06T10:47:10.431Z,1016.56
2017-12-06T10:48:10.406Z,1016.64
2017-12-06T10:49:10.372Z,1016.62
2017-12-06T10:50:10.359Z,1016.54
2017-12-06T10:51:10.324Z,1016.59
2017-12-06T10:52:10.303Z,1016.62
2017-12-06T10:53:10.270Z,1016.61
2017-12-06T10:54:10.243Z,1016.63
2017-12-06T10:55:10.218Z,1016.57
2017-12-06T10:56:10.190Z,1016.57
2017-12-06T10:57:10.174Z,1016.57
2017-12-06T10:58:10.139Z,1016.48
2017-12-06T10:59:10.119Z,1016.47
2017-12-06T11:00:10.097Z,1016.45
2017-12-06T11:01:10.055Z,1016.52
2017-12-06T11:02:10.042Z,1016.45
2017-12-06T11:03:10.005Z,1016.41
2017-12-06T11:04:09.989Z,1016.42
2017-12-06T11:05:09.951Z,1016.39
2017-12-06T11:06:09.933Z,1016.37
2017-12-06T11:07:09.905Z,1016.35
2017-12-06T11:08:09.882Z,1016.43
2017-12-06T11:09:09.850Z,1016.36
2017-12-06T11:10:09.833Z,1016.37
2017-12-06T11:11:09.798Z,1016.38
2017-12-06T11:12:09.772Z,1016.31
2017-12-06T11:13:09.749Z,1016.33
2017-12-06T11:14:09.717Z,1016.36
2017-12-06T11:15:09.706Z,1016.32
2017-12-06T11:16:09.669Z,1016.35
2017-12-06T11:17:09.638Z,1016.38
2017-12-06T11:18:09.608Z,1016.33
2017-12-06T11:19:09.597Z,1016.33
2017-12-06T11:20:09.560Z,1016.24
2017-12-06T11:21:09.545Z,1016.35
2017-12-06T11:22:09.510Z,1016.31
2017-12-06T11:23:09.482Z,1016.29
2017-12-06T11:24:09.466Z,1016.24
2017-12-06T11:25:09.439Z,1016.31
2017-12-06T11:26:09.404Z,1016.22
2017-12-06T11:27:09.383Z,1016.21
2017-12-06T11:28:09.351Z,1016.25
2017-12-06T11:29:09.332Z,1016.15
2017-12-06T11:30:09.305Z,1016.09
2017-12-06T11:31:09.274Z,1016.13
2017-12-06T11:32:09.242Z,1016.13
2017-12-06T11:33:09.234Z,1016.09
2017-12-06T11:34:09.194Z,1016.12
2017-12-06T11:35:09.172Z,1016.17
2017-12-06T11:36:09.144Z,1016.16
2017-12-06T11:37:09.119Z,1016.18
2017-12-06T11:38:09.092Z,1016.19
2017-12-06T11:39:09.067Z,1016.16
2017-12-06T11:40:09.048Z,1016.12
2017-12-06T11:41:09.010Z,1016.16
2017-12-06T11:42:08.992Z,1016.14
2017-12-06T11:43:08.949Z,1016.10
2017-12-06T11:44:08.932Z,1016.08
2017-12-06T11:45:08.940Z,1016.09
2017-12-06T11:46:08.879Z,1016.13
2017-12-06T11:47:08.852Z,1016.07
2017-12-06T11:48:08.830Z,1016.16
2017-12-06T11:49:08.800Z,1016.15
2017-12-06T11:50:08.775Z,1016.07
2017-12-06T11:51:08.747Z,1016.14
2017-12-06T11:52:08.716Z,1016.13
2017-12-06T11:53:08.696Z,1016.14
2017-12-06T11:54:08.674Z,1016.12
2017-12-06T11:55:08.640Z,1016.17
2017-12-06T11:56:08.647Z,1016.14
2017-12-06T11:57:08.599Z,1016.14
2017-12-06T11:58:08.566Z,1016.16
2017-12-06T11:59:08.541Z,1016.16
2017-12-06T12:00:08.518Z,1016.18
2017-12-06T12:01:08.491Z,1016.10
2017-12-06T12:02:08.466Z,1016.06
2017-12-06T12:03:08.440Z,1016.09
2017-12-06T12:04:08.408Z,1016.02
2017-12-06T12:05:08.499Z,1016.03